Accueil
METAR-TAF:

METAR-TAF

Aéroports :

Aéroport international de Pittsburgh

Pittsburgh, Pennsylvanie, États-Unis

latitude: 40-30-14N, longitude: 080-15-59W, altitude: 366 m

Observation

Le bulletin a été fait il y a 27 minutes, à 06:51 UTC
Vent 3 kt de ouest/nord-ouest
Température -10°C
Humidité 72%
Pression 1033 hPa
Visibilité: 16.1 km
Ciel clair

METAR: KPIT 210651Z 29003KT 10SM CLR M10/M14 A3051 RMK AO2 SLP359 T11001139

Heure: 02:18 (07:18 UTC)

Prévision

Le bulletin a été fait il y a 1 heure et 58 minutes, à 05:20 UTC
Prévision valable du 21 à 06 UTC au 22 à 12 UTC
Vent 5 kt de nord/nord-ouest
Visibilité: 10 km
Nuages épars à une hauteur de 3500 ft
A partir de 21 à 1200 UTC
Vent 5 kt de ouest
Visibilité: 10 km
Ciel clair

TAF: KPIT 210520Z 2106/2212 34005KT P6SM SCT035 FM211200 27005KT P6SM SKC

Observations et prévisions météorologiques de plus de 4000 aéroports (messages METAR et TAF).

Les stations disponibles sont représentées par des disques jaunes et rouges sur la carte.

Passer la souris dessus pour voir le nom de la station.

Cliquer dessus pour voir les observations et prévisions météorologiques.

Pour changer de carte: cliquez sur les boutons verts avec une croix noire pour zoomer, sur le bouton vert avec un tiret pour effectuer un zoom arrière, ou sur les flèches vertes pour les cartes adjacentes.


METAR-TAF: